createdAt,value
2023-04-09T00:00:27.881Z,60.21
2023-04-09T00:01:27.868Z,53.60
2023-04-09T00:02:27.917Z,53.72
2023-04-09T00:03:27.900Z,53.06
2023-04-09T00:04:27.889Z,56.99
2023-04-09T00:05:27.837Z,54.94
2023-04-09T00:06:27.889Z,59.61
2023-04-09T00:07:27.857Z,57.06
2023-04-09T00:08:27.858Z,55.02
2023-04-09T00:09:27.822Z,55.04
2023-04-09T00:10:27.819Z,54.65
2023-04-09T00:11:27.824Z,52.91
2023-04-09T00:12:27.802Z,52.81
2023-04-09T00:13:38.664Z,54.74
2023-04-09T00:14:29.797Z,60.34
2023-04-09T00:15:31.026Z,54.01
2023-04-09T00:16:28.806Z,58.53
2023-04-09T00:17:27.851Z,61.54
2023-04-09T00:18:27.809Z,54.81
2023-04-09T00:19:27.842Z,54.95
2023-04-09T00:20:27.793Z,54.82
2023-04-09T00:21:27.781Z,54.38
2023-04-09T00:22:27.752Z,55.44
2023-04-09T00:23:27.876Z,53.86
2023-04-09T00:24:27.796Z,53.56
2023-04-09T00:25:27.760Z,58.39
2023-04-09T00:26:27.773Z,54.37
2023-04-09T00:27:27.743Z,53.59
2023-04-09T00:28:27.762Z,53.91
2023-04-09T00:29:27.757Z,53.77
2023-04-09T00:30:27.735Z,58.49
2023-04-09T00:31:27.739Z,57.22
2023-04-09T00:32:27.731Z,54.16
2023-04-09T00:33:27.717Z,54.15
2023-04-09T00:34:27.726Z,54.14
2023-04-09T00:35:27.757Z,54.33
2023-04-09T00:36:27.697Z,54.34
2023-04-09T00:37:27.721Z,54.29
2023-04-09T00:38:27.695Z,54.30
2023-04-09T00:39:27.687Z,54.12
2023-04-09T00:40:27.648Z,54.31
2023-04-09T00:41:27.689Z,54.22
2023-04-09T00:42:27.686Z,54.17
2023-04-09T00:43:27.643Z,54.28
2023-04-09T00:44:27.660Z,54.22
2023-04-09T00:45:27.676Z,54.22
2023-04-09T00:46:27.643Z,54.04
2023-04-09T00:47:27.702Z,60.53
2023-04-09T00:48:27.628Z,58.63
2023-04-09T00:49:27.642Z,57.96
2023-04-09T00:50:27.601Z,54.65
2023-04-09T00:51:27.631Z,54.22
2023-04-09T00:52:27.640Z,54.41
2023-04-09T00:53:28.624Z,54.43
2023-04-09T00:54:27.601Z,54.47
2023-04-09T00:55:27.589Z,62.77
2023-04-09T00:56:27.599Z,54.41
2023-04-09T00:57:27.614Z,59.06
2023-04-09T00:58:27.560Z,54.42
2023-04-09T00:59:27.537Z,59.03
2023-04-09T01:00:27.624Z,54.34
2023-04-09T01:01:27.653Z,54.21
2023-04-09T01:02:27.712Z,54.11
2023-04-09T01:03:27.661Z,54.23
2023-04-09T01:04:27.540Z,54.14
2023-04-09T01:05:27.506Z,55.43
2023-04-09T01:06:27.512Z,56.97
2023-04-09T01:07:28.492Z,57.66
2023-04-09T01:08:27.544Z,54.43
2023-04-09T01:09:27.479Z,59.63
2023-04-09T01:10:27.491Z,58.22
2023-04-09T01:11:27.486Z,55.28
2023-04-09T01:12:27.461Z,56.47
2023-04-09T01:13:27.455Z,54.48
2023-04-09T01:14:27.503Z,58.27
2023-04-09T01:15:27.470Z,54.14
2023-04-09T01:16:27.527Z,54.13
2023-04-09T01:17:27.484Z,56.54
2023-04-09T01:18:27.493Z,57.06
2023-04-09T01:19:27.453Z,54.74
2023-04-09T01:20:27.426Z,60.59
2023-04-09T01:21:27.896Z,54.84
2023-04-09T01:22:27.412Z,54.01
2023-04-09T01:23:27.418Z,53.97
2023-04-09T01:24:27.392Z,54.03
2023-04-09T01:25:27.400Z,54.12
2023-04-09T01:26:27.412Z,54.13
2023-04-09T01:27:27.380Z,54.17
2023-04-09T01:28:27.366Z,54.17
2023-04-09T01:29:27.368Z,54.17
2023-04-09T01:30:27.388Z,60.51
2023-04-09T01:31:27.342Z,59.14
2023-04-09T01:32:27.379Z,54.31
2023-04-09T01:33:27.352Z,58.78
2023-04-09T01:34:27.333Z,54.21
2023-04-09T01:35:27.344Z,54.19
2023-04-09T01:36:27.342Z,58.84
2023-04-09T01:37:27.311Z,58.80
2023-04-09T01:38:27.306Z,58.37
2023-04-09T01:39:27.314Z,54.33
2023-04-09T01:40:27.325Z,54.34
2023-04-09T01:41:27.328Z,54.32
2023-04-09T01:42:27.306Z,54.39
2023-04-09T01:43:27.298Z,54.40
2023-04-09T01:44:27.276Z,54.41
2023-04-09T01:45:27.318Z,54.38
2023-04-09T01:46:27.412Z,58.54
2023-04-09T01:47:27.456Z,54.52
2023-04-09T01:48:27.255Z,54.04
2023-04-09T01:49:27.253Z,58.87
2023-04-09T01:50:27.247Z,60.20
2023-04-09T01:51:27.266Z,54.07
2023-04-09T01:52:27.269Z,53.95
2023-04-09T01:53:27.229Z,54.03
2023-04-09T01:54:27.217Z,53.91
2023-04-09T01:55:27.227Z,54.01
2023-04-09T01:56:27.204Z,54.03
2023-04-09T01:57:27.220Z,54.10
2023-04-09T01:58:27.227Z,54.12
2023-04-09T01:59:27.183Z,54.26
2023-04-09T02:00:27.218Z,54.14
2023-04-09T02:01:27.242Z,58.65
2023-04-09T02:02:27.331Z,54.34
2023-04-09T02:03:27.250Z,54.09
2023-04-09T02:04:27.170Z,58.48
2023-04-09T02:05:27.158Z,54.01
2023-04-09T02:06:28.731Z,54.06
2023-04-09T02:07:27.140Z,53.95
2023-04-09T02:08:27.132Z,57.87
2023-04-09T02:09:27.123Z,54.04
2023-04-09T02:10:27.135Z,54.23
2023-04-09T02:11:27.133Z,60.08
2023-04-09T02:12:27.154Z,54.17
2023-04-09T02:13:27.160Z,57.61
2023-04-09T02:14:27.133Z,59.00
2023-04-09T02:15:27.149Z,57.03
2023-04-09T02:16:27.112Z,54.11
2023-04-09T02:17:27.154Z,54.21
2023-04-09T02:18:27.088Z,54.06
2023-04-09T02:19:27.081Z,54.04
2023-04-09T02:20:27.078Z,53.98
2023-04-09T02:21:27.107Z,53.93
2023-04-09T02:22:27.106Z,53.86
2023-04-09T02:23:27.069Z,53.94
2023-04-09T02:24:27.059Z,54.86
2023-04-09T02:25:27.083Z,60.87
2023-04-09T02:26:27.092Z,54.07
2023-04-09T02:27:27.051Z,53.97
2023-04-09T02:28:27.013Z,62.40
2023-04-09T02:29:27.023Z,53.94
2023-04-09T02:30:27.018Z,53.83
2023-04-09T02:31:27.085Z,53.96
2023-04-09T02:32:27.125Z,53.89
2023-04-09T02:33:27.000Z,53.96
2023-04-09T02:34:27.036Z,53.89
2023-04-09T02:35:27.000Z,53.98
2023-04-09T02:36:26.979Z,53.92
2023-04-09T02:37:26.992Z,54.62
2023-04-09T02:38:26.975Z,60.20
2023-04-09T02:40:00.419Z,54.22
2023-04-09T02:41:04.220Z,53.40
2023-04-09T02:41:26.978Z,54.07
2023-04-09T02:43:00.399Z,53.70
2023-04-09T02:44:00.375Z,54.04
2023-04-09T02:45:00.375Z,53.79
2023-04-09T02:46:00.586Z,53.97
2023-04-09T02:47:00.400Z,54.11
2023-04-09T02:48:01.957Z,54.01
2023-04-09T02:48:26.936Z,53.97
2023-04-09T02:49:26.951Z,54.07
2023-04-09T02:50:27.880Z,54.19
2023-04-09T02:51:26.891Z,54.22
2023-04-09T02:52:26.910Z,54.24
2023-04-09T02:53:27.043Z,56.96
2023-04-09T02:54:26.912Z,54.14
2023-04-09T02:55:26.991Z,54.20
2023-04-09T02:56:26.891Z,54.14
2023-04-09T02:57:26.987Z,54.26
2023-04-09T02:58:26.922Z,56.78
2023-04-09T02:59:26.874Z,54.09
2023-04-09T03:00:26.980Z,54.11
2023-04-09T03:01:26.851Z,54.13
2023-04-09T03:02:27.150Z,54.08
2023-04-09T03:03:26.934Z,54.01
2023-04-09T03:04:27.063Z,54.04
2023-04-09T03:05:26.851Z,53.93
2023-04-09T03:06:26.812Z,53.97
2023-04-09T03:07:26.836Z,54.04
2023-04-09T03:08:26.805Z,55.35
2023-04-09T03:09:26.807Z,59.02
2023-04-09T03:10:26.810Z,54.23
2023-04-09T03:11:26.802Z,56.74
2023-04-09T03:12:26.787Z,57.50
2023-04-09T03:13:26.802Z,54.39
2023-04-09T03:14:26.793Z,54.22
2023-04-09T03:15:26.838Z,54.21
2023-04-09T03:16:26.881Z,60.91
2023-04-09T03:17:26.832Z,54.39
2023-04-09T03:18:26.765Z,54.19
2023-04-09T03:19:26.845Z,54.34
2023-04-09T03:20:26.761Z,57.60
2023-04-09T03:21:26.753Z,59.66
2023-04-09T03:22:26.747Z,58.26
2023-04-09T03:23:26.728Z,59.22
2023-04-09T03:24:26.750Z,59.07
2023-04-09T03:25:26.760Z,54.14
2023-04-09T03:26:26.680Z,54.23
2023-04-09T03:27:26.708Z,58.35
2023-04-09T03:28:26.713Z,56.52
2023-04-09T03:29:26.686Z,54.33
2023-04-09T03:30:26.667Z,58.89
2023-04-09T03:31:26.715Z,54.59
2023-04-09T03:32:26.731Z,54.64
2023-04-09T03:33:26.667Z,54.91
2023-04-09T03:34:26.710Z,54.49
2023-04-09T03:35:26.682Z,59.71
2023-04-09T03:36:26.705Z,60.50
2023-04-09T03:37:26.707Z,54.47
2023-04-09T03:38:26.636Z,54.48
2023-04-09T03:39:26.663Z,58.02
2023-04-09T03:40:26.665Z,54.98
2023-04-09T03:41:26.633Z,58.34
2023-04-09T03:42:26.665Z,61.17
2023-04-09T03:43:27.607Z,55.78
2023-04-09T03:44:26.664Z,60.64
2023-04-09T03:45:27.438Z,59.43
2023-04-09T03:46:26.601Z,63.77
2023-04-09T03:47:26.636Z,55.89
2023-04-09T03:48:26.578Z,55.92
2023-04-09T03:49:26.630Z,55.86
2023-04-09T03:50:26.572Z,56.14
2023-04-09T03:51:26.555Z,60.15
2023-04-09T03:52:27.399Z,59.22
2023-04-09T03:53:26.536Z,60.39
2023-04-09T03:54:26.564Z,55.78
2023-04-09T03:55:26.531Z,55.55
2023-04-09T03:56:26.680Z,58.94
2023-04-09T03:57:26.548Z,58.20
2023-04-09T03:58:26.526Z,58.72
2023-04-09T03:59:26.552Z,55.99
2023-04-09T04:00:26.512Z,56.22
2023-04-09T04:01:26.494Z,65.94
2023-04-09T04:02:26.609Z,56.95
2023-04-09T04:03:26.649Z,60.75
2023-04-09T04:04:26.611Z,57.94
2023-04-09T04:05:26.496Z,63.33
2023-04-09T04:06:26.479Z,61.43
2023-04-09T04:07:26.479Z,57.17
2023-04-09T04:08:26.506Z,57.67
2023-04-09T04:09:26.467Z,63.89
2023-04-09T04:10:26.493Z,56.51
2023-04-09T04:11:26.445Z,56.47
2023-04-09T04:12:26.450Z,61.14
2023-04-09T04:13:26.472Z,61.85
2023-04-09T04:14:26.410Z,58.12
2023-04-09T04:15:26.423Z,56.34
2023-04-09T04:16:26.453Z,55.80
2023-04-09T04:17:26.488Z,60.58
2023-04-09T04:18:26.422Z,56.70
2023-04-09T04:19:26.421Z,59.13
2023-04-09T04:20:26.442Z,55.61
2023-04-09T04:21:26.414Z,55.88
2023-04-09T04:22:26.474Z,55.45
2023-04-09T04:23:26.472Z,55.29
2023-04-09T04:24:26.388Z,58.40
2023-04-09T04:25:26.388Z,55.89
2023-04-09T04:26:26.401Z,60.35
2023-04-09T04:27:26.370Z,60.69
2023-04-09T04:28:26.361Z,60.23
2023-04-09T04:29:26.446Z,56.76
2023-04-09T04:30:26.352Z,56.33
2023-04-09T04:31:26.356Z,55.67
2023-04-09T04:32:26.360Z,59.84
2023-04-09T04:33:26.346Z,60.93
2023-04-09T04:34:27.490Z,57.83
2023-04-09T04:35:26.328Z,57.34
2023-04-09T04:36:26.302Z,59.11
2023-04-09T04:37:26.330Z,55.55
2023-04-09T04:38:26.365Z,59.04
2023-04-09T04:39:26.296Z,55.90
2023-04-09T04:40:26.287Z,58.88
2023-04-09T04:41:26.285Z,61.67
2023-04-09T04:42:26.299Z,61.42
2023-04-09T04:43:26.266Z,61.36
2023-04-09T04:44:26.589Z,57.55
2023-04-09T04:45:26.274Z,62.13
2023-04-09T04:46:26.265Z,63.86
2023-04-09T04:47:26.274Z,59.38
2023-04-09T04:48:26.238Z,55.96
2023-04-09T04:49:26.239Z,55.23
2023-04-09T04:50:26.523Z,58.77
2023-04-09T04:51:26.229Z,55.80
2023-04-09T04:52:26.207Z,56.12
2023-04-09T04:53:26.240Z,58.83
2023-04-09T04:54:26.639Z,59.38
2023-04-09T04:55:26.246Z,60.54
2023-04-09T04:56:26.232Z,63.44
2023-04-09T04:57:26.385Z,56.90
2023-04-09T04:58:26.213Z,54.99
2023-04-09T04:59:26.218Z,54.97
2023-04-09T05:00:26.160Z,54.93
2023-04-09T05:01:26.185Z,58.24
2023-04-09T05:02:26.268Z,55.38
2023-04-09T05:03:27.690Z,57.55
2023-04-09T05:04:27.261Z,57.83
2023-04-09T05:05:26.176Z,64.21
2023-04-09T05:06:26.130Z,58.29
2023-04-09T05:07:26.135Z,64.27
2023-04-09T05:08:26.115Z,60.49
2023-04-09T05:09:27.172Z,64.45
2023-04-09T05:10:26.126Z,61.63
2023-04-09T05:11:26.119Z,59.00
2023-04-09T05:12:26.108Z,60.83
2023-04-09T05:13:26.136Z,61.49
2023-04-09T05:14:26.068Z,58.52
2023-04-09T05:15:26.093Z,61.26
2023-04-09T05:16:26.122Z,55.43
2023-04-09T05:17:26.167Z,60.61
2023-04-09T05:18:26.130Z,61.53
2023-04-09T05:19:26.074Z,55.68
2023-04-09T05:20:26.079Z,54.74
2023-04-09T05:21:26.074Z,59.68
2023-04-09T05:22:26.036Z,57.67
2023-04-09T05:23:26.029Z,60.44
2023-04-09T05:24:26.213Z,54.96
2023-04-09T05:25:26.058Z,56.10
2023-04-09T05:26:26.047Z,62.37
2023-04-09T05:27:26.030Z,59.68
2023-04-09T05:28:26.007Z,55.84
2023-04-09T05:29:26.063Z,55.56
2023-04-09T05:30:26.052Z,61.06
2023-04-09T05:31:25.979Z,60.94
2023-04-09T05:32:26.046Z,60.55
2023-04-09T05:33:25.981Z,57.54
2023-04-09T05:34:25.984Z,57.03
2023-04-09T05:35:25.994Z,67.41
2023-04-09T05:36:26.045Z,57.10
2023-04-09T05:37:26.005Z,69.53
2023-04-09T05:38:25.955Z,57.46
2023-04-09T05:39:25.969Z,60.79
2023-04-09T05:40:25.935Z,58.05
2023-04-09T05:41:25.931Z,60.38
2023-04-09T05:42:25.944Z,61.01
2023-04-09T05:43:25.929Z,56.01
2023-04-09T05:44:25.984Z,56.21
2023-04-09T05:45:26.019Z,56.69
2023-04-09T05:46:26.032Z,62.76
2023-04-09T05:47:25.926Z,59.24
2023-04-09T05:48:25.881Z,57.15
2023-04-09T05:49:25.887Z,56.04
2023-04-09T05:50:26.896Z,59.47
2023-04-09T05:51:25.883Z,57.80
2023-04-09T05:52:25.868Z,54.21
2023-04-09T05:53:26.918Z,56.90
2023-04-09T05:54:25.907Z,61.96
2023-04-09T05:55:25.876Z,61.49
2023-04-09T05:56:25.831Z,58.03
2023-04-09T05:57:25.869Z,59.70
2023-04-09T05:58:25.875Z,66.00
2023-04-09T05:59:25.863Z,59.13
2023-04-09T06:00:25.802Z,59.63
2023-04-09T06:01:25.811Z,59.98
2023-04-09T06:02:25.961Z,62.60
2023-04-09T06:03:25.925Z,67.96
2023-04-09T06:04:25.867Z,65.46
2023-04-09T06:05:25.809Z,66.02
2023-04-09T06:06:25.784Z,59.85
2023-04-09T06:07:26.455Z,63.00
2023-04-09T06:08:25.760Z,63.82
2023-04-09T06:09:25.783Z,60.79
2023-04-09T06:10:25.830Z,61.39
2023-04-09T06:11:25.754Z,62.53
2023-04-09T06:12:25.731Z,59.16
2023-04-09T06:13:26.746Z,59.71
2023-04-09T06:14:25.748Z,63.59
2023-04-09T06:15:25.775Z,56.13
2023-04-09T06:16:25.722Z,65.61
2023-04-09T06:17:25.736Z,60.29
2023-04-09T06:18:25.696Z,56.33
2023-04-09T06:19:25.712Z,59.64
2023-04-09T06:20:25.717Z,60.21
2023-04-09T06:21:25.688Z,54.10
2023-04-09T06:22:25.672Z,57.82
2023-04-09T06:23:25.709Z,61.08
2023-04-09T06:24:25.671Z,62.44
2023-04-09T06:25:25.718Z,58.48
2023-04-09T06:26:25.653Z,59.96
2023-04-09T06:27:25.681Z,55.40
2023-04-09T06:28:25.651Z,58.93
2023-04-09T06:29:25.652Z,59.82
2023-04-09T06:30:25.675Z,65.76
2023-04-09T06:31:25.678Z,65.29
2023-04-09T06:32:25.664Z,57.54
2023-04-09T06:33:25.691Z,57.55
2023-04-09T06:34:25.643Z,57.08
2023-04-09T06:35:25.616Z,66.98
2023-04-09T06:36:25.619Z,60.89
2023-04-09T06:37:25.598Z,59.35
2023-04-09T06:38:25.595Z,63.22
2023-04-09T06:39:25.599Z,57.82
2023-04-09T06:40:25.592Z,65.39
2023-04-09T06:41:25.579Z,65.76
2023-04-09T06:42:25.624Z,66.29
2023-04-09T06:43:25.596Z,65.52
2023-04-09T06:44:25.547Z,63.01
2023-04-09T06:45:25.553Z,69.56
2023-04-09T06:46:25.578Z,56.44
2023-04-09T06:47:25.554Z,57.14
2023-04-09T06:48:25.577Z,59.38
2023-04-09T06:49:25.535Z,60.58
2023-04-09T06:50:25.573Z,61.90
2023-04-09T06:51:25.503Z,65.99
2023-04-09T06:52:25.526Z,61.46
2023-04-09T06:53:25.608Z,63.22
2023-04-09T06:54:25.502Z,59.03
2023-04-09T06:55:25.698Z,65.38
2023-04-09T06:56:25.505Z,64.84
2023-04-09T06:57:25.501Z,55.61
2023-04-09T06:58:25.467Z,57.72
2023-04-09T06:59:25.467Z,61.42
2023-04-09T07:00:25.467Z,55.65
2023-04-09T07:01:25.438Z,54.42
2023-04-09T07:02:25.737Z,67.44
2023-04-09T07:03:25.581Z,57.65
2023-04-09T07:04:25.552Z,63.60
2023-04-09T07:05:25.433Z,61.94
2023-04-09T07:06:25.436Z,64.15
2023-04-09T07:07:25.869Z,63.77
2023-04-09T07:08:26.631Z,59.41
2023-04-09T07:09:25.399Z,60.57
2023-04-09T07:17:09.245Z,60.89
2023-04-09T07:18:06.013Z,56.66
2023-04-09T07:18:32.553Z,59.66
2023-04-09T07:20:05.941Z,62.54
2023-04-09T07:21:05.994Z,66.42
2023-04-09T07:21:32.504Z,57.37
2023-04-09T07:22:32.545Z,62.50
2023-04-09T07:24:05.954Z,59.51
2023-04-09T07:24:32.493Z,56.35
2023-04-09T07:26:05.960Z,66.91
2023-04-09T07:26:32.469Z,61.38
2023-04-09T07:28:05.922Z,63.39
2023-04-09T07:28:32.453Z,63.79
2023-04-09T07:29:32.459Z,67.26
2023-04-09T07:30:32.465Z,63.58
2023-04-09T07:31:35.236Z,64.31
2023-04-09T07:32:32.477Z,67.43
2023-04-09T07:33:32.464Z,66.88
2023-04-09T07:34:32.436Z,66.84
2023-04-09T07:35:32.450Z,69.25
2023-04-09T07:36:32.630Z,66.32
2023-04-09T07:37:32.410Z,65.08
2023-04-09T07:38:32.415Z,65.69
2023-04-09T07:39:32.414Z,61.33
2023-04-09T07:40:32.380Z,65.44
2023-04-09T07:41:32.397Z,64.56
2023-04-09T07:42:32.398Z,66.50
2023-04-09T07:43:32.425Z,65.71
2023-04-09T07:44:32.363Z,59.53
2023-04-09T07:45:32.363Z,62.06
2023-04-09T07:46:32.357Z,61.84
2023-04-09T07:47:32.450Z,58.36
2023-04-09T07:48:32.409Z,66.76
2023-04-09T07:49:32.306Z,63.96
2023-04-09T07:50:32.317Z,66.96
2023-04-09T07:51:32.294Z,65.51
2023-04-09T07:52:32.298Z,63.38
2023-04-09T07:53:32.322Z,65.74
2023-04-09T07:54:32.362Z,64.89
2023-04-09T07:55:32.298Z,66.87
2023-04-09T07:56:32.302Z,65.62
2023-04-09T07:57:32.274Z,66.80
2023-04-09T07:58:32.270Z,69.54
2023-04-09T07:59:32.265Z,69.41
2023-04-09T08:00:32.255Z,66.80
2023-04-09T08:01:32.303Z,66.88
2023-04-09T08:02:32.470Z,65.56
2023-04-09T08:03:32.511Z,64.35
2023-04-09T08:04:32.454Z,62.03
2023-04-09T08:05:32.216Z,65.17
2023-04-09T08:06:32.202Z,66.78
2023-04-09T08:07:32.197Z,67.27
2023-04-09T08:08:32.212Z,63.12
2023-04-09T08:09:32.264Z,63.20
2023-04-09T08:10:32.176Z,56.88
2023-04-09T08:11:32.189Z,65.47
2023-04-09T08:12:32.193Z,61.05
2023-04-09T08:13:32.173Z,61.40
2023-04-09T08:14:32.181Z,67.61
2023-04-09T08:15:32.187Z,69.22
2023-04-09T08:16:32.195Z,54.76
2023-04-09T08:17:32.166Z,67.18
2023-04-09T08:18:32.155Z,63.58
2023-04-09T08:19:32.160Z,59.31
2023-04-09T08:20:32.110Z,61.05
2023-04-09T08:21:32.131Z,68.61
2023-04-09T08:22:32.123Z,59.75
2023-04-09T08:23:32.098Z,62.83
2023-04-09T08:24:32.139Z,60.04
2023-04-09T08:25:32.120Z,67.15
2023-04-09T08:26:32.749Z,64.40
2023-04-09T08:27:32.109Z,70.31
2023-04-09T08:28:32.122Z,67.54
2023-04-09T08:29:32.175Z,62.38
2023-04-09T08:30:32.104Z,52.05
2023-04-09T08:31:32.175Z,59.01
2023-04-09T08:32:32.128Z,66.52
2023-04-09T08:33:32.063Z,61.41
2023-04-09T08:34:32.088Z,68.78
2023-04-09T08:35:32.061Z,64.33
2023-04-09T08:36:32.181Z,67.22
2023-04-09T08:37:32.020Z,56.45
2023-04-09T08:38:32.057Z,69.09
2023-04-09T08:39:32.006Z,58.74
2023-04-09T08:40:32.105Z,58.39
2023-04-09T08:41:32.011Z,68.75
2023-04-09T08:42:32.101Z,66.85
2023-04-09T08:43:52.702Z,56.89
2023-04-09T08:44:34.096Z,60.74
2023-04-09T08:45:32.063Z,66.47
2023-04-09T08:46:31.993Z,63.26
2023-04-09T08:47:32.050Z,60.15
2023-04-09T08:48:32.069Z,63.30
2023-04-09T08:49:32.020Z,68.00
2023-04-09T08:50:31.984Z,53.44
2023-04-09T08:51:31.950Z,66.35
2023-04-09T08:52:32.671Z,62.38
2023-04-09T08:53:31.935Z,61.69
2023-04-09T08:54:32.214Z,64.77
2023-04-09T08:55:31.915Z,63.62
2023-04-09T08:56:31.979Z,64.84
2023-04-09T08:57:31.908Z,63.16
2023-04-09T08:58:31.898Z,63.66
2023-04-09T08:59:31.911Z,66.00
2023-04-09T09:00:31.918Z,68.53
2023-04-09T09:01:32.031Z,65.85
2023-04-09T09:02:32.071Z,69.48
2023-04-09T09:03:32.105Z,64.11
2023-04-09T09:04:31.905Z,65.65
2023-04-09T09:05:31.860Z,65.78
2023-04-09T09:06:31.855Z,57.59
2023-04-09T09:07:31.959Z,56.23
2023-04-09T09:08:31.912Z,70.07
2023-04-09T09:09:31.856Z,60.70
2023-04-09T09:10:31.834Z,67.77
2023-04-09T09:11:31.842Z,63.41
2023-04-09T09:12:31.849Z,68.84
2023-04-09T09:13:31.851Z,67.70
2023-04-09T09:14:31.789Z,64.23
2023-04-09T09:15:31.802Z,63.46
2023-04-09T09:16:31.851Z,69.57
2023-04-09T09:17:31.829Z,65.88
2023-04-09T09:18:31.785Z,68.81
2023-04-09T09:19:31.772Z,63.10
2023-04-09T09:20:31.771Z,67.49
2023-04-09T09:21:32.080Z,63.57
2023-04-09T09:22:31.783Z,61.60
2023-04-09T09:23:31.782Z,72.21
2023-04-09T09:24:31.763Z,60.74
2023-04-09T09:25:31.755Z,63.26
2023-04-09T09:26:31.732Z,62.35
2023-04-09T09:27:31.722Z,71.23
2023-04-09T09:28:31.796Z,67.42
2023-04-09T09:29:31.740Z,68.58
2023-04-09T09:30:31.774Z,65.08
2023-04-09T09:31:31.853Z,69.93
2023-04-09T09:32:31.789Z,68.95
2023-04-09T09:33:32.357Z,61.48
2023-04-09T09:34:31.737Z,69.63
2023-04-09T09:35:31.869Z,67.58
2023-04-09T09:36:31.702Z,66.95
2023-04-09T09:37:31.751Z,64.17
2023-04-09T09:38:31.654Z,68.93
2023-04-09T09:39:31.673Z,69.28
2023-04-09T09:40:31.729Z,65.14
2023-04-09T09:41:31.661Z,69.99
2023-04-09T09:42:31.762Z,62.69
2023-04-09T09:43:31.639Z,66.06
2023-04-09T09:44:31.930Z,67.95
2023-04-09T09:45:31.682Z,63.02
2023-04-09T09:46:31.760Z,70.46
2023-04-09T09:47:32.288Z,66.95
2023-04-09T09:48:31.673Z,69.24
2023-04-09T09:49:31.671Z,67.24
2023-04-09T09:50:31.606Z,67.37
2023-04-09T09:51:31.600Z,70.29
2023-04-09T09:52:31.584Z,67.19
2023-04-09T09:53:31.577Z,69.20
2023-04-09T09:54:31.575Z,68.97
2023-04-09T09:55:31.562Z,64.05
2023-04-09T09:56:31.558Z,65.94
2023-04-09T09:57:31.560Z,67.80
2023-04-09T09:58:31.664Z,68.88
2023-04-09T09:59:31.578Z,60.69
2023-04-09T10:00:31.625Z,68.23
2023-04-09T10:01:31.674Z,70.63
2023-04-09T10:02:31.597Z,68.40
2023-04-09T10:03:31.532Z,67.90
2023-04-09T10:04:31.618Z,59.35
2023-04-09T10:05:31.519Z,71.85
2023-04-09T10:06:31.548Z,61.28
2023-04-09T10:07:31.476Z,64.27
2023-04-09T10:08:31.467Z,61.72
2023-04-09T10:09:31.491Z,63.65
2023-04-09T10:10:31.505Z,61.70
2023-04-09T10:11:31.467Z,65.94
2023-04-09T10:12:31.456Z,67.16
2023-04-09T10:13:31.467Z,64.41
2023-04-09T10:14:31.504Z,66.96
2023-04-09T10:15:31.551Z,65.61
2023-04-09T10:16:31.618Z,66.66
2023-04-09T10:17:32.529Z,67.00
2023-04-09T10:18:31.400Z,70.03
2023-04-09T10:19:31.459Z,69.17
2023-04-09T10:20:31.435Z,64.25
2023-04-09T10:21:31.409Z,65.15
2023-04-09T10:22:31.428Z,67.29
2023-04-09T10:23:31.390Z,70.04
2023-04-09T10:24:31.387Z,65.97
2023-04-09T10:25:31.376Z,70.08
2023-04-09T10:26:31.373Z,65.31
2023-04-09T10:27:31.400Z,69.47
2023-04-09T10:28:31.366Z,70.52
2023-04-09T10:29:31.348Z,63.07
2023-04-09T10:30:31.337Z,65.50
2023-04-09T10:31:31.416Z,64.75
2023-04-09T10:32:31.392Z,65.88
2023-04-09T10:33:31.344Z,66.63
2023-04-09T10:34:31.342Z,61.60
2023-04-09T10:35:31.331Z,64.84
2023-04-09T10:36:31.360Z,65.38
2023-04-09T10:37:31.321Z,67.40
2023-04-09T10:38:31.321Z,69.39
2023-04-09T10:39:31.268Z,65.98
2023-04-09T10:40:31.297Z,61.50
2023-04-09T10:41:31.319Z,67.40
2023-04-09T10:42:31.330Z,65.80
2023-04-09T10:43:31.258Z,68.00
2023-04-09T10:44:31.273Z,69.34
2023-04-09T10:45:31.230Z,63.89
2023-04-09T10:46:31.315Z,70.38
2023-04-09T10:47:31.240Z,68.98
2023-04-09T10:48:31.288Z,66.72
2023-04-09T10:49:31.247Z,62.51
2023-04-09T10:50:31.235Z,70.53
2023-04-09T10:51:31.200Z,70.48
2023-04-09T10:52:31.200Z,67.22
2023-04-09T10:53:31.269Z,69.04
2023-04-09T10:54:31.240Z,68.26
2023-04-09T10:55:31.280Z,67.33
2023-04-09T10:56:31.166Z,63.78
2023-04-09T10:57:31.156Z,69.66
2023-04-09T10:58:31.152Z,63.09
2023-04-09T10:59:31.129Z,66.57
2023-04-09T11:00:31.131Z,67.38
2023-04-09T11:01:31.234Z,67.98
2023-04-09T11:02:31.339Z,69.67
2023-04-09T11:03:31.277Z,67.42
2023-04-09T11:04:31.335Z,66.54
2023-04-09T11:05:31.130Z,67.18
2023-04-09T11:06:31.078Z,65.64
2023-04-09T11:07:31.104Z,65.04
2023-04-09T11:08:31.079Z,64.87
2023-04-09T11:09:31.080Z,58.52
2023-04-09T11:10:31.065Z,63.44
2023-04-09T11:11:31.074Z,68.03
2023-04-09T11:12:31.073Z,63.94
2023-04-09T11:13:31.117Z,63.56
2023-04-09T11:14:31.035Z,65.68
2023-04-09T11:15:31.062Z,65.81
2023-04-09T11:16:31.066Z,68.50
2023-04-09T11:17:31.055Z,67.78
2023-04-09T11:18:31.100Z,69.81
2023-04-09T11:19:31.050Z,69.11
2023-04-09T11:20:31.036Z,68.46
2023-04-09T11:21:30.987Z,65.45
2023-04-09T11:22:31.048Z,62.50
2023-04-09T11:23:30.996Z,65.83
2023-04-09T11:24:31.015Z,63.78
2023-04-09T11:25:31.822Z,64.75
2023-04-09T11:26:31.022Z,68.76
2023-04-09T11:27:32.300Z,66.39
2023-04-09T11:28:31.066Z,70.76
2023-04-09T11:29:30.977Z,65.90
2023-04-09T11:30:30.926Z,68.76
2023-04-09T11:31:30.998Z,71.88
2023-04-09T11:32:30.987Z,66.73
2023-04-09T11:33:30.944Z,65.41
2023-04-09T11:34:30.893Z,62.34
2023-04-09T11:35:31.029Z,67.87
2023-04-09T11:36:30.915Z,71.89
2023-04-09T11:37:30.936Z,68.00
2023-04-09T11:38:30.903Z,65.35
2023-04-09T11:39:30.931Z,70.65
2023-04-09T11:40:30.888Z,68.80
2023-04-09T11:41:30.944Z,69.61
2023-04-09T11:42:30.872Z,67.47
2023-04-09T11:43:30.856Z,72.57
2023-04-09T11:44:30.847Z,63.82
2023-04-09T11:45:30.832Z,65.49
2023-04-09T11:46:30.871Z,64.11
2023-04-09T11:47:31.002Z,67.92
2023-04-09T11:48:30.840Z,64.86
2023-04-09T11:49:31.019Z,67.21
2023-04-09T11:50:30.852Z,66.88
2023-04-09T11:51:30.908Z,71.28
2023-04-09T11:52:30.833Z,67.47
2023-04-09T11:53:30.813Z,66.09
2023-04-09T11:54:30.798Z,65.17
2023-04-09T11:55:30.778Z,65.44
2023-04-09T11:56:30.805Z,68.59
2023-04-09T11:57:30.778Z,65.25
2023-04-09T11:58:30.798Z,66.04
2023-04-09T11:59:30.813Z,67.09
2023-04-09T12:00:30.811Z,69.70
2023-04-09T12:01:30.780Z,67.62
2023-04-09T12:02:30.902Z,67.66
2023-04-09T12:03:31.015Z,57.80
2023-04-09T12:04:30.844Z,61.50
2023-04-09T12:05:30.733Z,67.05
2023-04-09T12:06:30.847Z,63.82
2023-04-09T12:07:30.731Z,67.06
2023-04-09T12:08:30.718Z,69.35
2023-04-09T12:09:30.725Z,70.07
2023-04-09T12:10:30.774Z,68.41
2023-04-09T12:11:30.710Z,67.78
2023-04-09T12:12:30.719Z,64.69
2023-04-09T12:13:30.682Z,65.65
2023-04-09T12:14:30.716Z,63.96
2023-04-09T12:15:30.670Z,66.27
2023-04-09T12:16:30.715Z,66.17
2023-04-09T12:17:30.779Z,71.79
2023-04-09T12:18:30.684Z,69.57
2023-04-09T12:19:30.713Z,69.61
2023-04-09T12:20:30.644Z,65.12
2023-04-09T12:21:30.676Z,66.32
2023-04-09T12:22:30.744Z,67.37
2023-04-09T12:23:30.600Z,66.88
2023-04-09T12:24:30.735Z,65.78
2023-04-09T12:25:31.280Z,67.23
2023-04-09T12:26:30.616Z,63.09
2023-04-09T12:27:32.882Z,63.84
2023-04-09T12:28:30.605Z,70.78
2023-04-09T12:29:30.588Z,63.81
2023-04-09T12:30:30.579Z,65.85
2023-04-09T12:31:30.635Z,70.52
2023-04-09T12:32:30.576Z,68.03
2023-04-09T12:33:30.559Z,70.24
2023-04-09T12:34:30.541Z,69.14
2023-04-09T12:35:30.764Z,71.06
2023-04-09T12:36:30.555Z,67.89
2023-04-09T12:37:30.884Z,70.11
2023-04-09T12:38:30.614Z,69.18
2023-04-09T12:39:31.658Z,63.51
2023-04-09T12:40:30.512Z,67.64
2023-04-09T12:41:30.534Z,70.90
2023-04-09T12:42:30.488Z,67.58
2023-04-09T12:43:30.520Z,69.92
2023-04-09T12:44:30.484Z,70.47
2023-04-09T12:45:30.700Z,67.97
2023-04-09T12:46:30.529Z,68.42
2023-04-09T12:47:31.293Z,69.31
2023-04-09T12:48:31.367Z,69.73
2023-04-09T12:49:30.449Z,65.58
2023-04-09T12:50:30.452Z,69.42
2023-04-09T12:51:30.441Z,70.75
2023-04-09T12:52:30.431Z,67.76
2023-04-09T12:53:30.487Z,66.59
2023-04-09T12:54:30.405Z,66.28
2023-04-09T12:55:30.461Z,65.90
2023-04-09T12:56:30.410Z,65.49
2023-04-09T12:57:30.437Z,68.78
2023-04-09T12:58:30.462Z,67.79